Time;durP1;ratioP1;P1;durP2;ratioP2;P2;SDS_P1;SDS_P2;PMS_P1;PMS_P2;Temp;Humidity;BMP_temperature;BMP_pressure;BME280_temperature;BME280_humidity;BME280_pressure;Samples;Min_cycle;Max_cycle;Signal;HPM_P1;HPM_P2
2023/02/14 00:02:06;;;;;;;10.1;5.2;;;;;;;0.96;86.70605;954.2247;;;;
2023/02/14 00:04:32;;;;;;;9;5.1;;;;;;;0.9;86.38281;954.2455;;;;
2023/02/14 00:06:57;;;;;;;10.3;5.6;;;;;;;0.72;86.68945;954.1913;;;;
2023/02/14 00:09:22;;;;;;;10.6;5.6;;;;;;;0.59;87.34375;954.2358;;;;
2023/02/14 00:11:53;;;;;;;13.9;6.7;;;;;;;0.48;88.02246;954.1829;;;;
2023/02/14 00:16:56;;;;;;;14.4;7.2;;;;;;;0.39;89.08691;954.193;;;;
2023/02/14 00:19:21;;;;;;;11.1;6;;;;;;;0.48;88.83691;954.1578;;;;
2023/02/14 00:22:02;;;;;;;10.1;5.5;;;;;;;0.61;88.31836;954.1351;;;;
2023/02/14 00:24:27;;;;;;;11.5;6.1;;;;;;;0.65;87.86816;954.1333;;;;
2023/02/14 00:26:52;;;;;;;11.6;5.7;;;;;;;0.63;87.82031;954.1049;;;;
2023/02/14 00:29:22;;;;;;;8;4.4;;;;;;;0.48;88.54883;954.12;;;;
2023/02/14 00:31:48;;;;;;;7;4.2;;;;;;;0.59;88.59375;954.1533;;;;
2023/02/14 00:38:16;;;;;;;4.5;2.9;;;;;;;0.77;87.75;954.058;;;;
2023/02/14 00:40:48;;;;;;;5.2;2.9;;;;;;;0.73;88.12012;954.1864;;;;
2023/02/14 00:43:13;;;;;;;4.7;2.9;;;;;;;0.69;87.87988;954.2115;;;;
2023/02/14 00:45:45;;;;;;;8.5;4.5;;;;;;;0.6;88.19336;954.223;;;;
2023/02/14 00:48:11;;;;;;;6.5;3.9;;;;;;;0.59;88.23828;954.2001;;;;
2023/02/14 00:50:36;;;;;;;7;3.9;;;;;;;0.49;88.61719;954.1777;;;;
2023/02/14 00:53:04;;;;;;;6.7;4;;;;;;;0.43;88.78223;954.1978;;;;
2023/02/14 00:55:29;;;;;;;5.5;3.8;;;;;;;0.38;89.38477;954.1897;;;;
2023/02/14 00:57:55;;;;;;;5.9;3.9;;;;;;;0.4;89.53516;954.1589;;;;
2023/02/14 01:00:23;;;;;;;6.2;4.6;;;;;;;0.41;89.16016;954.2208;;;;
2023/02/14 01:02:50;;;;;;;9.3;4.8;;;;;;;0.37;88.95898;954.2551;;;;
2023/02/14 01:05:18;;;;;;;7.9;4.8;;;;;;;0.41;88.49805;954.2555;;;;
2023/02/14 01:07:48;;;;;;;8.7;5.4;;;;;;;0.4;87.77344;954.2598;;;;
2023/02/14 01:10:18;;;;;;;8.7;5;;;;;;;0.36;87.73047;954.2853;;;;
2023/02/14 01:14:27;;;;;;;8.1;4.8;;;;;;;0.15;88.41309;954.2732;;;;
2023/02/14 01:16:54;;;;;;;5.6;4;;;;;;;0.11;89.16211;954.3372;;;;
2023/02/14 01:27:28;;;;;;;4.8;2.7;;;;;;;0.18;89.40918;954.2183;;;;
2023/02/14 01:29:55;;;;;;;3.3;2.6;;;;;;;0.3;89.03223;954.3084;;;;
2023/02/14 01:32:25;;;;;;;3.3;2.5;;;;;;;0.4;88.18555;954.2795;;;;
2023/02/14 01:34:56;;;;;;;3.9;2.5;;;;;;;0.36;87.90918;954.3167;;;;
2023/02/14 01:37:28;;;;;;;3.3;2.5;;;;;;;0.37;88.26953;954.288;;;;
2023/02/14 01:40:02;;;;;;;4.3;2.9;;;;;;;0.31;88.46777;954.3694;;;;
2023/02/14 01:42:27;;;;;;;4.1;2.5;;;;;;;0.39;88.57227;954.332;;;;
2023/02/14 01:44:53;;;;;;;3.2;2.5;;;;;;;0.38;88.29199;954.3359;;;;
2023/02/14 01:47:26;;;;;;;4.1;3.2;;;;;;;0.27;87.99023;954.3197;;;;
2023/02/14 02:03:51;;;;;;;15.4;7.8;;;;;;;-0.04;89.76465;954.3039;;;;
2023/02/14 02:06:16;;;;;;;9.8;5;;;;;;;0;89.68457;954.2828;;;;
2023/02/14 02:08:45;;;;;;;8.5;5;;;;;;;0.09;89.21191;954.2486;;;;
2023/02/14 02:11:11;;;;;;;5.8;3.7;;;;;;;0.16;88.52539;954.3033;;;;
2023/02/14 02:13:39;;;;;;;3.7;2.8;;;;;;;0.2;88.16504;954.2756;;;;
2023/02/14 02:16:04;;;;;;;5.8;3.8;;;;;;;0.15;87.74316;954.3286;;;;
2023/02/14 02:18:34;;;;;;;10.6;5.8;;;;;;;0.02;88.66406;954.3041;;;;
2023/02/14 02:20:59;;;;;;;11.6;6.5;;;;;;;-0.1;89.05078;954.2581;;;;
2023/02/14 02:23:24;;;;;;;6.9;4.4;;;;;;;-0.19;89.82227;954.2272;;;;
2023/02/14 02:28:18;;;;;;;4.9;3;;;;;;;-0.1;90.0957;954.2317;;;;
2023/02/14 02:30:46;;;;;;;2.5;2.3;;;;;;;0.04;89.61426;954.1627;;;;
2023/02/14 02:34:49;;;;;;;3.3;2.2;;;;;;;-0.04;89.53027;954.1813;;;;
2023/02/14 02:37:14;;;;;;;4.3;2.2;;;;;;;-0.01;89.89258;954.1414;;;;
2023/02/14 02:39:39;;;;;;;4.6;3;;;;;;;0.09;89.64648;954.1311;;;;
2023/02/14 02:42:08;;;;;;;2.6;2.2;;;;;;;0.2;88.88867;954.1174;;;;
2023/02/14 02:44:38;;;;;;;3;1.9;;;;;;;0.24;88.45313;954.1023;;;;
2023/02/14 02:47:06;;;;;;;4.8;2.2;;;;;;;0.25;88.36523;954.0572;;;;
2023/02/14 02:54:24;;;;;;;2.9;2;;;;;;;0.05;88.6582;953.9045;;;;
2023/02/14 02:56:52;;;;;;;4.3;2.1;;;;;;;-0.01;89.17969;953.9895;;;;
2023/02/14 02:59:17;;;;;;;3.3;1.8;;;;;;;-0.01;89.6582;953.9942;;;;
2023/02/14 03:01:45;;;;;;;4.4;2.6;;;;;;;-0.06;89.96094;954.0075;;;;
2023/02/14 03:06:38;;;;;;;5.5;3.4;;;;;;;0.01;89.91895;953.9982;;;;
2023/02/14 03:13:03;;;;;;;6.6;4.2;;;;;;;0.05;89.15723;953.9495;;;;
2023/02/14 03:15:18;;;;;;;4.3;3.3;;;;;;;0.03;88.66602;953.9875;;;;
2023/02/14 03:17:45;;;;;;;13.1;4;;;;;;;0.09;87.82129;953.9758;;;;
2023/02/14 03:20:14;;;;;;;6.3;3.8;;;;;;;-0.01;87.99902;953.9711;;;;
2023/02/14 03:22:40;;;;;;;8.4;4.6;;;;;;;-0.23;88.78906;954.0151;;;;
2023/02/14 03:25:06;;;;;;;11.3;6.5;;;;;;;-0.25;90.18555;954.0425;;;;
2023/02/14 03:27:35;;;;;;;14.1;8.5;;;;;;;-0.25;89.94043;954.0597;;;;
2023/02/14 03:30:00;;;;;;;9.1;5.2;;;;;;;-0.09;89.46289;953.913;;;;
2023/02/14 03:32:26;;;;;;;9.3;6.1;;;;;;;-0.13;89.18848;953.9339;;;;
2023/02/14 03:34:51;;;;;;;10.8;6.3;;;;;;;-0.05;88.88281;954.0062;;;;
2023/02/14 03:37:16;;;;;;;9.7;6.4;;;;;;;-0.07;88.54395;953.9681;;;;
2023/02/14 03:39:41;;;;;;;7.6;5.4;;;;;;;-0.16;89.18262;953.9326;;;;
2023/02/14 03:42:07;;;;;;;6;4.8;;;;;;;-0.08;88.83008;954.0297;;;;
2023/02/14 03:44:32;;;;;;;3.9;3.1;;;;;;;-0.01;88.50195;954.077;;;;
2023/02/14 03:46:57;;;;;;;4.7;2.8;;;;;;;-0.09;88.60742;954.0533;;;;
2023/02/14 03:49:22;;;;;;;3.7;2.3;;;;;;;-0.15;88.88379;954.0545;;;;
2023/02/14 03:51:47;;;;;;;3.6;2.4;;;;;;;-0.16;88.72559;954.0588;;;;
2023/02/14 03:54:17;;;;;;;2.9;2.1;;;;;;;-0.26;89.15918;954.0865;;;;
2023/02/14 03:56:42;;;;;;;4;2.4;;;;;;;-0.29;89.56543;954.0742;;;;
2023/02/14 03:59:10;;;;;;;3.3;1.8;;;;;;;-0.35;89.47656;954.07;;;;
2023/02/14 04:03:12;;;;;;;2.9;1.9;;;;;;;-0.25;89.16309;954.0961;;;;
2023/02/14 04:05:40;;;;;;;3.1;2.1;;;;;;;-0.17;88.95801;954.1178;;;;
2023/02/14 04:08:02;;;;;;;3.5;3;;;;;;;-0.16;88.21191;954.0865;;;;
2023/02/14 04:10:27;;;;;;;2.9;1.8;;;;;;;-0.27;87.64551;954.0889;;;;
2023/02/14 04:12:53;;;;;;;3.3;1.9;;;;;;;-0.37;88.2041;954.0416;;;;
2023/02/14 04:15:23;;;;;;;2.4;1.8;;;;;;;-0.43;89.01367;954.071;;;;
2023/02/14 04:20:27;;;;;;;2.6;2;;;;;;;-0.43;88.78906;954.142;;;;
2023/02/14 04:22:56;;;;;;;3.2;2.2;;;;;;;-0.4;88.57422;954.1287;;;;
2023/02/14 04:25:23;;;;;;;3.4;2;;;;;;;-0.42;88.41504;954.1616;;;;
2023/02/14 04:27:56;;;;;;;4.1;1.9;;;;;;;-0.48;89.00391;954.0957;;;;
2023/02/14 04:30:26;;;;;;;3;1.6;;;;;;;-0.41;89.2959;954.1127;;;;
2023/02/14 04:32:55;;;;;;;1.9;1.7;;;;;;;-0.37;89.31641;954.0779;;;;
2023/02/14 04:35:20;;;;;;;2.2;1.6;;;;;;;-0.23;88.75488;954.0762;;;;
2023/02/14 04:37:49;;;;;;;4.3;1.9;;;;;;;-0.24;88.38574;954.0948;;;;
2023/02/14 04:40:21;;;;;;;2.1;1.8;;;;;;;-0.24;88.88672;954.0822;;;;
2023/02/14 04:42:49;;;;;;;4;2.4;;;;;;;-0.26;88.89258;954.1116;;;;
2023/02/14 04:45:18;;;;;;;4;2.7;;;;;;;-0.28;88.78809;954.0903;;;;
2023/02/14 04:47:48;;;;;;;4;2.6;;;;;;;-0.4;89.06641;954.1169;;;;
2023/02/14 04:50:19;;;;;;;3;2.4;;;;;;;-0.43;89.38086;954.0808;;;;
2023/02/14 04:52:51;;;;;;;2.5;2;;;;;;;-0.4;89.58887;953.9338;;;;
2023/02/14 04:55:21;;;;;;;2.6;1.8;;;;;;;-0.4;89.43359;954.0089;;;;
2023/02/14 04:57:46;;;;;;;3.4;1.9;;;;;;;-0.37;89.02539;954.017;;;;
2023/02/14 05:00:24;;;;;;;2.7;2;;;;;;;-0.25;88.25;953.9468;;;;
2023/02/14 05:02:50;;;;;;;2;1.8;;;;;;;-0.2;87.78125;953.9899;;;;
2023/02/14 05:05:22;;;;;;;2.2;1.8;;;;;;;-0.26;87.85938;954.0656;;;;
2023/02/14 05:07:54;;;;;;;3;2.3;;;;;;;-0.15;87.83691;954.0106;;;;
2023/02/14 05:10:25;;;;;;;4.2;3.5;;;;;;;-0.27;88.36719;953.9579;;;;
2023/02/14 05:12:53;;;;;;;5.7;3.6;;;;;;;-0.32;88.36914;953.9581;;;;
2023/02/14 05:15:19;;;;;;;4.9;3.4;;;;;;;-0.38;88.2793;953.9895;;;;
2023/02/14 05:17:50;;;;;;;6;3.8;;;;;;;-0.38;88.45605;953.9975;;;;
2023/02/14 05:20:23;;;;;;;8.9;6;;;;;;;-0.33;87.7793;953.9964;;;;
2023/02/14 05:22:53;;;;;;;9.3;6.1;;;;;;;-0.42;87.61328;954.007;;;;
2023/02/14 05:25:19;;;;;;;6.9;4.1;;;;;;;-0.61;88.26367;954.0237;;;;
2023/02/14 05:27:49;;;;;;;3.8;3;;;;;;;-0.76;89.26563;953.9611;;;;
2023/02/14 05:30:14;;;;;;;4.4;3.2;;;;;;;-0.67;89.7627;953.9561;;;;
2023/02/14 05:32:39;;;;;;;6.2;3.3;;;;;;;-0.58;89.52832;953.9316;;;;
2023/02/14 05:35:11;;;;;;;5.2;3.3;;;;;;;-0.57;89.46191;953.9261;;;;
2023/02/14 05:37:40;;;;;;;5.7;3.6;;;;;;;-0.55;89.49902;953.9679;;;;
2023/02/14 05:40:07;;;;;;;4.6;3.5;;;;;;;-0.42;88.7373;953.9595;;;;
2023/02/14 05:42:31;;;;;;;4.9;3.4;;;;;;;-0.47;88.34961;953.9801;;;;
2023/02/14 05:45:00;;;;;;;6.4;4.2;;;;;;;-0.52;88.62793;953.9523;;;;
2023/02/14 05:47:31;;;;;;;6.9;4.3;;;;;;;-0.46;88.63867;953.9242;;;;
2023/02/14 05:49:59;;;;;;;6.1;4.2;;;;;;;-0.5;88.64258;953.9055;;;;
2023/02/14 05:52:29;;;;;;;5.7;4.1;;;;;;;-0.6;88.65527;953.9068;;;;
2023/02/14 05:54:59;;;;;;;5.3;3.9;;;;;;;-0.77;89.74219;954.0003;;;;
2023/02/14 05:57:24;;;;;;;5.8;4.6;;;;;;;-0.71;89.93359;953.9947;;;;
2023/02/14 06:00:38;;;;;;;5.3;3.9;;;;;;;-0.62;89.50781;953.9864;;;;
2023/02/14 06:03:08;;;;;;;6.7;4.8;;;;;;;-0.73;89.44043;953.9931;;;;
2023/02/14 06:05:33;;;;;;;7;5;;;;;;;-0.77;89.85352;954.0212;;;;
2023/02/14 06:08:00;;;;;;;6.1;4.5;;;;;;;-0.72;89.76465;953.9386;;;;
2023/02/14 06:10:24;;;;;;;7.8;4.2;;;;;;;-0.62;89.45215;953.9072;;;;
2023/02/14 06:12:57;;;;;;;6;4.3;;;;;;;-0.66;89.33301;953.9949;;;;
2023/02/14 06:15:32;;;;;;;5.2;3.8;;;;;;;-0.7;89.76855;953.9883;;;;
2023/02/14 06:18:02;;;;;;;6.1;3.7;;;;;;;-0.77;89.93066;953.9378;;;;
2023/02/14 06:20:28;;;;;;;7.2;4.1;;;;;;;-0.78;90.24023;954.0099;;;;
2023/02/14 06:22:53;;;;;;;4.8;3.8;;;;;;;-0.69;89.98145;954.0072;;;;
2023/02/14 06:25:21;;;;;;;5.7;3.9;;;;;;;-0.62;89.61914;954.0129;;;;
2023/02/14 06:27:46;;;;;;;7.9;4.6;;;;;;;-0.59;90.37891;954.0697;;;;
2023/02/14 06:30:14;;;;;;;6.3;4.1;;;;;;;-0.57;89.41699;954.0675;;;;
2023/02/14 06:32:39;;;;;;;5.9;3.6;;;;;;;-0.57;89.29492;954.043;;;;
2023/02/14 06:35:06;;;;;;;5.2;3.4;;;;;;;-0.56;89.04102;954.0016;;;;
2023/02/14 06:37:31;;;;;;;6.9;3.7;;;;;;;-0.58;89.28223;954.1298;;;;
2023/02/14 06:40:00;;;;;;;7.5;4.5;;;;;;;-0.58;89.54004;954.1046;;;;
2023/02/14 06:42:24;;;;;;;10.2;5.3;;;;;;;-0.64;89.73535;954.1691;;;;
2023/02/14 06:44:53;;;;;;;9;5.6;;;;;;;-0.65;89.8916;954.1577;;;;
2023/02/14 06:47:18;;;;;;;9.4;5.7;;;;;;;-0.59;91.05762;954.1775;;;;
2023/02/14 06:49:48;;;;;;;19.5;12;;;;;;;-0.35;90.5;954.1808;;;;
2023/02/14 06:52:13;;;;;;;20.7;12.9;;;;;;;-0.14;89.05273;954.1382;;;;
2023/02/14 06:54:41;;;;;;;14.8;9.5;;;;;;;-0.07;87.31934;954.1973;;;;
2023/02/14 06:57:06;;;;;;;15.5;8.9;;;;;;;-0.17;87.07617;954.1526;;;;
2023/02/14 06:59:35;;;;;;;10.2;7.1;;;;;;;-0.28;87.07617;954.1997;;;;
2023/02/14 07:02:02;;;;;;;8.9;6.5;;;;;;;-0.36;87.72656;954.1669;;;;
2023/02/14 07:04:27;;;;;;;9.6;6.5;;;;;;;-0.03;87.67188;954.1509;;;;
2023/02/14 07:06:55;;;;;;;9.2;5.8;;;;;;;0.26;85.9043;954.0783;;;;
2023/02/14 07:09:20;;;;;;;7.7;5.2;;;;;;;0.59;84.57813;954.1063;;;;
2023/02/14 07:12:11;;;;;;;6.4;4.8;;;;;;;0.89;83.16406;954.0358;;;;
2023/02/14 07:14:42;;;;;;;9.1;6.2;;;;;;;0.83;82.91699;954.0428;;;;
2023/02/14 07:17:07;;;;;;;9.1;5.2;;;;;;;1.13;82.53027;954.1025;;;;
2023/02/14 07:19:37;;;;;;;17.8;9.7;;;;;;;1.66;80.59863;954.0524;;;;
2023/02/14 07:22:02;;;;;;;15.7;8.9;;;;;;;2.15;77.98242;954.0097;;;;
2023/02/14 07:24:29;;;;;;;13.6;9.1;;;;;;;2.17;77.28027;953.973;;;;
2023/02/14 07:26:54;;;;;;;13;8.4;;;;;;;2.22;77.14453;953.9666;;;;
2023/02/14 07:29:24;;;;;;;10.6;6.9;;;;;;;2.3;77.29199;953.9275;;;;
2023/02/14 07:31:49;;;;;;;2.1;1.9;;;;;;;2.54;74.77051;953.8777;;;;
2023/02/14 07:34:16;;;;;;;9.3;5.5;;;;;;;2.94;74.87402;953.9391;;;;
2023/02/14 07:36:42;;;;;;;7.7;5.2;;;;;;;3.06;74.10938;953.921;;;;
2023/02/14 07:39:11;;;;;;;21.7;11.9;;;;;;;3.02;74.28223;953.8791;;;;
2023/02/14 07:41:36;;;;;;;14;7.5;;;;;;;3.54;72.92285;953.8582;;;;
2023/02/14 07:44:06;;;;;;;10.6;6.3;;;;;;;3.8;71.61914;953.845;;;;
2023/02/14 07:46:36;;;;;;;13.2;7.7;;;;;;;3.95;70.75879;953.7828;;;;
2023/02/14 07:49:01;;;;;;;11.1;7.4;;;;;;;4.02;70.43164;953.7975;;;;
2023/02/14 07:51:26;;;;;;;14.1;7.8;;;;;;;4.13;70.22461;953.7476;;;;
2023/02/14 07:53:57;;;;;;;11.6;7.4;;;;;;;3.98;70.32422;953.7711;;;;
2023/02/14 08:09:27;;;;;;;7.4;4.5;;;;;;;6.27;61.99707;953.4758;;;;
2023/02/14 08:14:15;;;;;;;5.6;4;;;;;;;6.8;60.9082;953.4341;;;;
2023/02/14 08:16:40;;;;;;;4.5;3.5;;;;;;;7.07;59.22363;953.4633;;;;
2023/02/14 08:19:06;;;;;;;6.5;4.3;;;;;;;6.9;59.5752;953.463;;;;
2023/02/14 08:21:35;;;;;;;5.4;3.5;;;;;;;7.44;57.70996;953.4294;;;;
2023/02/14 08:24:01;;;;;;;5.5;3.8;;;;;;;7.37;57.96094;953.4059;;;;
2023/02/14 08:26:26;;;;;;;5.3;3.4;;;;;;;7.4;58.01172;953.3911;;;;
2023/02/14 08:28:53;;;;;;;8.3;4.7;;;;;;;7.81;57.43066;953.2844;;;;
2023/02/14 08:31:17;;;;;;;7.1;4.5;;;;;;;7.78;56.84863;953.3372;;;;
2023/02/14 08:33:48;;;;;;;7.6;4.5;;;;;;;7.78;56.12305;953.2731;;;;
2023/02/14 08:36:22;;;;;;;11.1;6.5;;;;;;;7.9;55.20801;953.2823;;;;
2023/02/14 08:38:56;;;;;;;8.6;4.5;;;;;;;7.79;55.25;953.3081;;;;
2023/02/14 08:41:28;;;;;;;12.2;5.7;;;;;;;8.39;54.74902;953.1702;;;;
2023/02/14 08:43:56;;;;;;;14.7;6.7;;;;;;;8.35;54.83398;953.1591;;;;
2023/02/14 08:46:23;;;;;;;11.3;6.3;;;;;;;8.31;54.72754;953.1125;;;;
2023/02/14 08:48:50;;;;;;;10.1;4.9;;;;;;;7.92;54.65527;953.1114;;;;
2023/02/14 08:51:21;;;;;;;8.5;4.3;;;;;;;7.6;55.74805;953.0735;;;;
2023/02/14 08:53:46;;;;;;;10;4.4;;;;;;;7.24;57.56055;953.0889;;;;
2023/02/14 08:56:15;;;;;;;5.7;3;;;;;;;7.07;57.60352;953.0879;;;;
2023/02/14 08:58:46;;;;;;;4.8;2.9;;;;;;;7.17;57.98145;953.0695;;;;
2023/02/14 09:01:12;;;;;;;7.7;2.7;;;;;;;7.36;57.07715;953.0928;;;;
2023/02/14 09:03:38;;;;;;;4.8;2.4;;;;;;;7.57;55.85742;953.0636;;;;
2023/02/14 09:06:03;;;;;;;11.3;2.8;;;;;;;7.8;54.48047;953.0073;;;;
2023/02/14 09:08:34;;;;;;;3.9;1.5;;;;;;;7.82;53.80273;953.0594;;;;
2023/02/14 09:11:04;;;;;;;11;2.8;;;;;;;8.05;53.43359;953.0204;;;;
2023/02/14 09:13:33;;;;;;;3.8;1.4;;;;;;;8.62;50.81055;953.0087;;;;
2023/02/14 09:16:01;;;;;;;10.8;2;;;;;;;9.14;49.8125;953.0059;;;;
2023/02/14 09:18:27;;;;;;;5.4;1.5;;;;;;;9.31;48.84277;952.9738;;;;
2023/02/14 09:20:56;;;;;;;10.7;2.1;;;;;;;10.36;45.87891;952.9852;;;;
2023/02/14 09:23:27;;;;;;;2;0.9;;;;;;;10.47;43.31152;952.9597;;;;
2023/02/14 09:25:52;;;;;;;0.8;0.6;;;;;;;11.67;42.09277;952.9373;;;;
2023/02/14 09:28:21;;;;;;;4.7;1.2;;;;;;;12.86;40.92188;952.902;;;;
2023/02/14 09:30:46;;;;;;;5.5;1.7;;;;;;;12.79;39.76855;952.9042;;;;
2023/02/14 09:33:15;;;;;;;6.7;1.7;;;;;;;13.9;37.64941;952.8694;;;;
2023/02/14 09:35:44;;;;;;;4.4;1.1;;;;;;;14.46;37.3291;952.7737;;;;
2023/02/14 09:38:09;;;;;;;7.3;1.7;;;;;;;15.33;35.53223;952.7512;;;;
2023/02/14 09:40:38;;;;;;;1.3;0.6;;;;;;;15;35.35645;952.8339;;;;
2023/02/14 09:43:06;;;;;;;2.2;0.7;;;;;;;15.19;34.7373;952.7938;;;;
2023/02/14 09:45:31;;;;;;;3.3;0.9;;;;;;;15.91;33.82324;952.7811;;;;
2023/02/14 09:47:59;;;;;;;0.5;0.5;;;;;;;16.4;32.31055;952.7896;;;;
2023/02/14 09:50:28;;;;;;;1.7;0.8;;;;;;;16.36;32.5625;952.7883;;;;
2023/02/14 09:52:52;;;;;;;2;0.6;;;;;;;16.99;32.05176;952.8122;;;;
2023/02/14 09:55:19;;;;;;;1;0.6;;;;;;;17.11;31.07617;952.7999;;;;
2023/02/14 09:57:45;;;;;;;1;0.6;;;;;;;17.96;29.83496;952.7603;;;;
2023/02/14 10:00:11;;;;;;;1.8;0.7;;;;;;;18.74;28.22461;952.8237;;;;
2023/02/14 10:02:38;;;;;;;4.3;0.8;;;;;;;17.89;31.39746;952.7166;;;;
2023/02/14 10:05:07;;;;;;;4.2;1.3;;;;;;;18.68;31.28027;952.7687;;;;
2023/02/14 10:07:35;;;;;;;1;0.5;;;;;;;18.79;28.86816;952.7302;;;;
2023/02/14 10:10:08;;;;;;;1.3;0.7;;;;;;;18.59;30.34277;952.743;;;;
2023/02/14 10:12:36;;;;;;;0.7;0.6;;;;;;;18.52;29.09375;952.7453;;;;
2023/02/14 10:15:06;;;;;;;1.4;0.7;;;;;;;18.44;30.47266;952.6959;;;;
2023/02/14 10:17:36;;;;;;;1.4;0.9;;;;;;;18.18;30.47754;952.6809;;;;
2023/02/14 10:20:03;;;;;;;1.2;0.9;;;;;;;17.14;30.66016;952.6068;;;;
2023/02/14 10:22:38;;;;;;;0.7;0.7;;;;;;;16.69;30.69824;952.5736;;;;
2023/02/14 10:25:17;;;;;;;0.9;0.8;;;;;;;15.61;32.80664;952.616;;;;
2023/02/14 10:27:47;;;;;;;0.7;0.7;;;;;;;14.49;34.16211;952.6613;;;;
2023/02/14 10:30:22;;;;;;;0.7;0.7;;;;;;;13.79;37.52441;952.5665;;;;
2023/02/14 10:32:46;;;;;;;1.3;0.7;;;;;;;13.84;37.28809;952.5551;;;;
2023/02/14 10:35:16;;;;;;;1.5;0.8;;;;;;;13.85;37.5752;952.532;;;;
2023/02/14 10:37:43;;;;;;;2;1;;;;;;;14.24;37.65527;952.5183;;;;
2023/02/14 10:40:14;;;;;;;2.1;1;;;;;;;14.66;38.2793;952.5048;;;;
2023/02/14 10:42:40;;;;;;;2.6;1.2;;;;;;;14.74;38.05469;952.4805;;;;
2023/02/14 10:45:15;;;;;;;3.2;2;;;;;;;14.89;38.46094;952.4921;;;;
2023/02/14 10:47:43;;;;;;;3.8;1.6;;;;;;;15.27;38.20605;952.3892;;;;
2023/02/14 10:50:16;;;;;;;3.5;1.3;;;;;;;15.12;37.59277;952.3137;;;;
2023/02/14 10:52:43;;;;;;;1.5;1.1;;;;;;;15.38;36.7832;952.3233;;;;
2023/02/14 10:55:13;;;;;;;2.7;1.4;;;;;;;15.14;37.3623;952.2713;;;;
2023/02/14 10:57:40;;;;;;;2.6;1.4;;;;;;;15.8;35.95313;952.1962;;;;
2023/02/14 11:00:05;;;;;;;2.8;1;;;;;;;15.9;35.33691;952.1864;;;;
2023/02/14 11:02:30;;;;;;;2.8;1.2;;;;;;;16.04;35.55566;952.152;;;;
2023/02/14 11:04:55;;;;;;;3.4;0.9;;;;;;;16.44;34.8125;952.106;;;;
2023/02/14 11:07:26;;;;;;;2.3;1.2;;;;;;;16.32;33.83105;952.0491;;;;
2023/02/14 11:09:53;;;;;;;1.8;1;;;;;;;15.91;34.36621;952.0795;;;;
2023/02/14 11:12:18;;;;;;;2;0.8;;;;;;;16.42;33.12207;951.9707;;;;
2023/02/14 11:14:43;;;;;;;1.6;0.9;;;;;;;17.01;33.4209;951.8844;;;;
2023/02/14 11:17:13;;;;;;;1.6;1.1;;;;;;;16.48;33.55371;951.9109;;;;
2023/02/14 11:19:43;;;;;;;2;1.4;;;;;;;16.48;33.58887;951.9277;;;;
2023/02/14 11:22:09;;;;;;;1.5;0.8;;;;;;;16.99;33.4541;951.8336;;;;
2023/02/14 11:24:34;;;;;;;1.1;0.8;;;;;;;16.65;33.60156;951.8016;;;;
2023/02/14 11:26:59;;;;;;;1.3;0.7;;;;;;;17.19;32.51855;951.7642;;;;
2023/02/14 11:29:24;;;;;;;1.2;0.6;;;;;;;17.41;30.77246;951.6892;;;;
2023/02/14 11:31:50;;;;;;;0.9;0.6;;;;;;;17.64;30.47461;951.6553;;;;
2023/02/14 11:34:14;;;;;;;0.8;0.7;;;;;;;17.84;30.57031;951.6558;;;;
2023/02/14 11:36:42;;;;;;;0.7;0.7;;;;;;;17.84;30.60547;951.663;;;;
2023/02/14 11:39:07;;;;;;;0.8;0.7;;;;;;;18.59;30.05176;951.6408;;;;
2023/02/14 11:41:38;;;;;;;1.5;1;;;;;;;18.76;30.54102;951.6075;;;;
2023/02/14 11:44:08;;;;;;;1.9;1.3;;;;;;;18.73;30.84082;951.5736;;;;
2023/02/14 11:46:39;;;;;;;5.8;2.6;;;;;;;19.94;31.54492;951.5041;;;;
2023/02/14 11:49:03;;;;;;;2.7;1.1;;;;;;;20.21;29.14746;951.4833;;;;
2023/02/14 11:51:32;;;;;;;2.1;1.2;;;;;;;20.44;28.36816;951.4308;;;;
2023/02/14 11:53:59;;;;;;;2.3;1;;;;;;;20.69;28.6875;951.4511;;;;
2023/02/14 11:56:23;;;;;;;2.8;1.1;;;;;;;21.94;26.73047;951.4402;;;;
2023/02/14 11:58:48;;;;;;;2;1;;;;;;;22.34;26.06152;951.4225;;;;
2023/02/14 12:01:17;;;;;;;0.8;0.7;;;;;;;22.97;25.66406;951.4011;;;;
2023/02/14 12:03:42;;;;;;;1.1;1;;;;;;;24.24;24.28906;951.2925;;;;
2023/02/14 12:06:07;;;;;;;4.7;1.2;;;;;;;24.95;23.00586;951.2498;;;;
2023/02/14 12:08:37;;;;;;;2.1;0.7;;;;;;;26.11;22.60449;951.3005;;;;
2023/02/14 12:10:59;;;;;;;1.8;0.8;;;;;;;26.75;21.80762;951.262;;;;
2023/02/14 12:13:26;;;;;;;2.3;0.8;;;;;;;27.59;20.44824;951.1895;;;;
2023/02/14 12:15:50;;;;;;;1.3;0.9;;;;;;;26.67;20.91602;951.1983;;;;
2023/02/14 12:18:17;;;;;;;1.9;0.9;;;;;;;25.83;22.35449;951.1256;;;;
2023/02/14 12:20:42;;;;;;;1;0.9;;;;;;;27.06;21.05176;951.103;;;;
2023/02/14 12:23:08;;;;;;;0.8;0.8;;;;;;;28.56;19.45703;951.012;;;;
2023/02/14 12:25:32;;;;;;;2.2;0.8;;;;;;;29.23;17.90234;950.9647;;;;
2023/02/14 12:28:00;;;;;;;1.3;1;;;;;;;29.2;18.15137;950.9716;;;;
2023/02/14 12:30:27;;;;;;;0.7;0.7;;;;;;;29.19;18.38867;950.9467;;;;
2023/02/14 12:32:51;;;;;;;1.1;0.8;;;;;;;30.37;17.33887;950.9034;;;;
2023/02/14 12:35:18;;;;;;;0.9;0.9;;;;;;;29.45;17.60156;950.8474;;;;
2023/02/14 12:37:43;;;;;;;0.7;0.7;;;;;;;28.67;18.20117;950.8544;;;;
2023/02/14 12:40:17;;;;;;;1.3;1;;;;;;;27.63;18.94238;950.7907;;;;
2023/02/14 12:42:46;;;;;;;1.6;1.2;;;;;;;26.22;20.70508;950.8283;;;;
2023/02/14 12:45:16;;;;;;;1;0.9;;;;;;;25.61;21.62207;950.817;;;;
2023/02/14 12:47:44;;;;;;;1.2;1;;;;;;;25.61;21.45703;950.7363;;;;
2023/02/14 12:50:08;;;;;;;1.4;1.1;;;;;;;25.89;21.55273;950.7983;;;;
2023/02/14 12:52:37;;;;;;;1.4;1.2;;;;;;;23.14;24.2998;950.6801;;;;
2023/02/14 12:55:09;;;;;;;0.9;0.9;;;;;;;23.72;24.1084;950.7188;;;;
2023/02/14 12:57:36;;;;;;;2;1.3;;;;;;;24.15;23.58887;950.674;;;;
2023/02/14 13:00:04;;;;;;;1.5;1.3;;;;;;;24.94;23.67773;950.6526;;;;
2023/02/14 13:02:31;;;;;;;3;1.3;;;;;;;25.06;23.99121;950.623;;;;
2023/02/14 13:04:57;;;;;;;1.6;1;;;;;;;25.25;23.18652;950.5929;;;;
2023/02/14 13:07:22;;;;;;;1.7;1.2;;;;;;;23.44;25.65625;950.6063;;;;
2023/02/14 13:09:53;;;;;;;1.5;1.2;;;;;;;23.33;25.81445;950.5506;;;;
2023/02/14 13:12:21;;;;;;;1.7;1.5;;;;;;;24.96;24.1748;950.5119;;;;
2023/02/14 13:14:46;;;;;;;1.8;1.2;;;;;;;26.9;21.70801;950.5231;;;;
2023/02/14 13:17:20;;;;;;;2.2;1.1;;;;;;;28.11;20.38867;950.4858;;;;
2023/02/14 13:19:51;;;;;;;1.6;1.1;;;;;;;28.07;20.125;950.4355;;;;
2023/02/14 13:22:16;;;;;;;1.8;1.2;;;;;;;28.13;20.0332;950.4579;;;;
2023/02/14 13:24:42;;;;;;;1.5;1.4;;;;;;;27.12;21.32715;950.4662;;;;
2023/02/14 13:27:11;;;;;;;1.4;1.2;;;;;;;26.76;21.78418;950.462;;;;
2023/02/14 13:29:38;;;;;;;2.4;1.4;;;;;;;28.21;20.0127;950.4881;;;;
2023/02/14 13:32:06;;;;;;;1.4;1.2;;;;;;;27.27;20.86035;950.3954;;;;
2023/02/14 13:34:31;;;;;;;2.6;1.5;;;;;;;25.66;22.39258;950.4389;;;;
2023/02/14 13:36:56;;;;;;;2.6;1.4;;;;;;;25.48;23.13965;950.4495;;;;
2023/02/14 13:39:21;;;;;;;2;1.2;;;;;;;27.16;21.15234;950.4058;;;;
2023/02/14 13:41:52;;;;;;;2.6;1.4;;;;;;;26.99;21.22656;950.3711;;;;
2023/02/14 13:44:17;;;;;;;1.9;1.2;;;;;;;28;20.51367;950.3251;;;;
2023/02/14 13:46:42;;;;;;;2.7;1.4;;;;;;;28.08;20.12598;950.3167;;;;
2023/02/14 13:49:14;;;;;;;2.4;1.7;;;;;;;27.26;20.40918;950.3233;;;;
2023/02/14 13:51:39;;;;;;;2.3;1.8;;;;;;;27.63;20.42578;950.355;;;;
2023/02/14 13:54:12;;;;;;;2;1.4;;;;;;;27.93;19.54883;950.233;;;;
2023/02/14 13:56:37;;;;;;;2.2;1.6;;;;;;;27.81;19.48438;950.2618;;;;
2023/02/14 13:59:06;;;;;;;1.3;1.2;;;;;;;27.26;19.78125;950.2289;;;;
2023/02/14 14:01:31;;;;;;;2.4;1.4;;;;;;;24;23.75781;950.2369;;;;
2023/02/14 14:04:01;;;;;;;1.5;1.4;;;;;;;25.94;21.91016;950.2751;;;;
2023/02/14 14:06:34;;;;;;;1.6;1.1;;;;;;;25.52;21.86621;950.2355;;;;
2023/02/14 14:09:04;;;;;;;2;1.4;;;;;;;27.11;20.30762;950.2397;;;;
2023/02/14 14:11:31;;;;;;;1.6;1.1;;;;;;;27.29;20.24512;950.2297;;;;
2023/02/14 14:14:02;;;;;;;1.2;1.1;;;;;;;26.11;20.86523;950.2062;;;;
2023/02/14 14:16:30;;;;;;;2;1.3;;;;;;;25.97;21.39063;950.2081;;;;
2023/02/14 14:19:02;;;;;;;1.6;1.2;;;;;;;25.19;22.7002;950.2004;;;;
2023/02/14 14:21:29;;;;;;;1.4;1.3;;;;;;;24.86;22.35254;950.1794;;;;
2023/02/14 14:24:00;;;;;;;2.6;1.1;;;;;;;26.06;21.41992;950.1972;;;;
2023/02/14 14:26:26;;;;;;;1.2;1.1;;;;;;;25.49;21.67578;950.2429;;;;
2023/02/14 14:28:51;;;;;;;1.9;1.3;;;;;;;26.15;21.16309;950.2058;;;;
2023/02/14 14:31:23;;;;;;;1.6;1.5;;;;;;;26.57;20.61523;950.2307;;;;
2023/02/14 14:33:52;;;;;;;1.4;1.3;;;;;;;27.07;20.21094;950.1777;;;;
2023/02/14 14:36:24;;;;;;;1.6;1.3;;;;;;;27.03;20.375;950.1013;;;;
2023/02/14 14:38:51;;;;;;;3.3;1.5;;;;;;;25.68;21.88574;950.1906;;;;
2023/02/14 14:41:17;;;;;;;1.6;1.4;;;;;;;26.53;20.90918;950.1877;;;;
2023/02/14 14:43:41;;;;;;;2.5;1.5;;;;;;;25.54;21.47656;950.1763;;;;
2023/02/14 14:46:07;;;;;;;1.8;1.4;;;;;;;26.08;21.39648;950.1557;;;;
2023/02/14 14:48:32;;;;;;;2.5;1.5;;;;;;;26.36;20.93652;950.171;;;;
2023/02/14 14:51:01;;;;;;;1.5;1.4;;;;;;;26.12;21.23242;950.1718;;;;
2023/02/14 14:53:26;;;;;;;1.9;1.6;;;;;;;25.98;21.28516;950.1537;;;;
2023/02/14 14:55:53;;;;;;;2;1.4;;;;;;;25.75;21.35742;950.1639;;;;
2023/02/14 14:58:19;;;;;;;1.7;1.3;;;;;;;25.43;21.67285;950.11;;;;
2023/02/14 15:00:48;;;;;;;2.3;1.3;;;;;;;24.91;22.20215;950.0804;;;;
2023/02/14 15:03:13;;;;;;;1.7;1.2;;;;;;;24.73;22.40527;950.0393;;;;
2023/02/14 15:05:38;;;;;;;1.4;1.3;;;;;;;24.81;22.39648;950.0349;;;;
2023/02/14 15:08:06;;;;;;;1.4;1.3;;;;;;;24.19;22.28418;950.0048;;;;
2023/02/14 15:10:31;;;;;;;2.1;1.3;;;;;;;23.82;23.19531;950.0505;;;;
2023/02/14 15:15:26;;;;;;;1.7;1.2;;;;;;;23.2;23.65625;950.0961;;;;
2023/02/14 15:17:57;;;;;;;2.4;1.7;;;;;;;22.44;25.03516;950.0916;;;;
2023/02/14 15:20:26;;;;;;;1.7;1.6;;;;;;;21.66;25.84668;950.117;;;;
2023/02/14 15:22:55;;;;;;;1.5;1.4;;;;;;;21.14;26.58789;950.1116;;;;
2023/02/14 15:25:22;;;;;;;5.7;3.1;;;;;;;20.65;27.22461;950.0776;;;;
2023/02/14 15:27:53;;;;;;;5.1;3.9;;;;;;;19.92;27.98535;950.1014;;;;
2023/02/14 15:30:25;;;;;;;4.7;3.2;;;;;;;18.94;29.28516;950.1052;;;;
2023/02/14 15:32:58;;;;;;;2.9;1.5;;;;;;;17.86;30.97754;950.0844;;;;
2023/02/14 15:35:27;;;;;;;2.7;1.9;;;;;;;16.68;32.70117;950.0945;;;;
2023/02/14 15:37:52;;;;;;;1.9;1.3;;;;;;;15.59;34.55957;950.1289;;;;
2023/02/14 15:40:21;;;;;;;1.9;1.5;;;;;;;14.98;35.82813;950.1351;;;;